Time;durP1;ratioP1;P1;durP2;ratioP2;P2;SDS_P1;SDS_P2;PMS_P1;PMS_P2;Temp;Humidity;BMP_temperature;BMP_pressure;BME280_temperature;BME280_humidity;BME280_pressure;Samples;Min_cycle;Max_cycle;Signal;HPM_P1;HPM_P2
2022/04/21 00:00:20;;;;;;;23.50;22.10;;;;;;;;;;5033699;28;20542;-90
2022/04/21 00:02:49;;;;;;;23.05;21.75;;;;;;;;;;5033559;28;20578;-90
2022/04/21 00:05:16;;;;;;;24.03;22.50;;;;;;;;;;5033646;28;20263;-90
2022/04/21 00:07:46;;;;;;;23.92;22.42;;;;;;;;;;5015984;28;20497;-90
2022/04/21 00:10:13;;;;;;;22.67;21.30;;;;;;;;;;5033618;28;20273;-90
2022/04/21 00:12:41;;;;;;;22.67;21.33;;;;;;;;;;5033654;28;20444;-89
2022/04/21 00:15:11;;;;;;;23.25;21.73;;;;;;;;;;5033683;28;20498;-89
2022/04/21 00:17:39;;;;;;;23.20;21.60;;;;;;;;;;5033244;28;20196;-90
2022/04/21 00:20:07;;;;;;;23.43;21.80;;;;;;;;;;5033318;28;20452;-90
2022/04/21 00:25:19;;;;;;;22.93;21.63;;;;;;;;;;5033766;28;20431;-90
2022/04/21 00:27:47;;;;;;;22.93;21.57;;;;;;;;;;5033276;28;20436;-90
2022/04/21 00:30:17;;;;;;;24.40;22.98;;;;;;;;;;5033477;28;20859;-89
2022/04/21 00:32:45;;;;;;;23.50;22.20;;;;;;;;;;5033213;28;20606;-90
2022/04/21 00:35:13;;;;;;;22.73;21.43;;;;;;;;;;5033004;28;20437;-90
2022/04/21 00:37:47;;;;;;;23.50;22.20;;;;;;;;;;5034110;28;20506;-90
2022/04/21 00:40:15;;;;;;;23.38;22.17;;;;;;;;;;5036712;28;20814;-90
2022/04/21 00:42:42;;;;;;;22.90;21.52;;;;;;;;;;5036553;28;20202;-90
2022/04/21 00:45:10;;;;;;;23.88;22.30;;;;;;;;;;5036664;28;20483;-90
2022/04/21 00:47:43;;;;;;;23.60;22.20;;;;;;;;;;5036668;28;20202;-88
2022/04/21 00:50:11;;;;;;;23.93;22.20;;;;;;;;;;5036912;28;20453;-90
2022/04/21 00:52:40;;;;;;;23.23;21.60;;;;;;;;;;5036198;28;20583;-90
2022/04/21 00:55:08;;;;;;;23.08;21.77;;;;;;;;;;5036665;28;20795;-88
2022/04/21 00:57:35;;;;;;;23.77;22.37;;;;;;;;;;5036536;28;20205;-89
2022/04/21 01:00:03;;;;;;;23.73;22.23;;;;;;;;;;5036385;28;20456;-89
2022/04/21 01:05:17;;;;;;;23.02;21.73;;;;;;;;;;5036082;28;20189;-90
2022/04/21 01:07:45;;;;;;;23.40;22.10;;;;;;;;;;5036325;28;20232;-90
2022/04/21 01:10:13;;;;;;;22.88;21.67;;;;;;;;;;5036130;28;20433;-90
2022/04/21 01:12:41;;;;;;;23.63;22.27;;;;;;;;;;5036035;28;20256;-90
2022/04/21 01:15:08;;;;;;;22.80;21.43;;;;;;;;;;5036310;28;20439;-90
2022/04/21 01:17:37;;;;;;;23.58;22.17;;;;;;;;;;5018101;28;20502;-90
2022/04/21 01:20:05;;;;;;;23.48;22.17;;;;;;;;;;5035765;28;20277;-89
2022/04/21 01:22:34;;;;;;;24.02;22.40;;;;;;;;;;5036137;28;20200;-90
2022/04/21 01:25:02;;;;;;;22.70;21.50;;;;;;;;;;5036002;28;20197;-90
2022/04/21 01:27:31;;;;;;;24.52;23.02;;;;;;;;;;5035930;28;20448;-89
2022/04/21 01:29:59;;;;;;;22.70;21.27;;;;;;;;;;5035945;28;20201;-90
2022/04/21 01:32:26;;;;;;;23.63;22.23;;;;;;;;;;5035653;28;20955;-90
2022/04/21 01:34:53;;;;;;;23.30;21.87;;;;;;;;;;5035436;28;20190;-89
2022/04/21 01:42:53;;;;;;;23.23;21.77;;;;;;;;;;5035310;28;20438;-89
2022/04/21 01:45:20;;;;;;;24.27;22.83;;;;;;;;;;5035652;28;20487;-89
2022/04/21 01:47:48;;;;;;;23.88;22.27;;;;;;;;;;5035332;28;20400;-87
2022/04/21 01:50:15;;;;;;;23.40;21.90;;;;;;;;;;5034949;28;20200;-90
2022/04/21 01:52:42;;;;;;;23.88;22.27;;;;;;;;;;5017606;28;20476;-90
2022/04/21 01:55:12;;;;;;;24.08;22.58;;;;;;;;;;5035109;28;20229;-89
2022/04/21 01:57:39;;;;;;;23.25;21.95;;;;;;;;;;5035343;28;20647;-90
2022/04/21 02:00:07;;;;;;;23.80;22.30;;;;;;;;;;5035039;28;20189;-90
2022/04/21 02:02:35;;;;;;;38.97;22.52;;;;;;;;;;5035189;28;20226;-90
2022/04/21 02:05:02;;;;;;;23.27;21.80;;;;;;;;;;5035105;28;20260;-89
2022/04/21 02:07:30;;;;;;;23.05;21.75;;;;;;;;;;5035000;28;20247;-89
2022/04/21 02:09:57;;;;;;;23.05;21.75;;;;;;;;;;5034735;28;20205;-89
2022/04/21 02:12:28;;;;;;;22.58;21.38;;;;;;;;;;5017450;28;20259;-89
2022/04/21 02:14:56;;;;;;;23.48;22.10;;;;;;;;;;5035311;28;20208;-90
2022/04/21 02:17:26;;;;;;;23.80;22.13;;;;;;;;;;5035427;28;20222;-89
2022/04/21 02:19:53;;;;;;;23.15;21.75;;;;;;;;;;5034865;28;20280;-90
2022/04/21 02:22:21;;;;;;;24.35;22.95;;;;;;;;;;5016992;28;20691;-90
2022/04/21 02:24:48;;;;;;;23.23;21.73;;;;;;;;;;5035007;28;20198;-90
2022/04/21 02:27:16;;;;;;;23.10;21.77;;;;;;;;;;5034755;28;20201;-89
2022/04/21 02:29:44;;;;;;;24.55;23.15;;;;;;;;;;5034857;28;20194;-89
2022/04/21 02:32:12;;;;;;;25.00;23.50;;;;;;;;;;5034557;28;20205;-89
2022/04/21 02:34:41;;;;;;;24.15;22.85;;;;;;;;;;5034866;28;20277;-90
2022/04/21 02:37:08;;;;;;;23.70;22.17;;;;;;;;;;5016877;28;20682;-89
2022/04/21 02:39:36;;;;;;;23.52;22.13;;;;;;;;;;5034678;28;20643;-89
2022/04/21 02:42:04;;;;;;;22.85;21.65;;;;;;;;;;5016944;28;20229;-89
2022/04/21 02:44:32;;;;;;;22.83;21.52;;;;;;;;;;5034323;28;20301;-89
2022/04/21 02:47:01;;;;;;;23.30;22.00;;;;;;;;;;5034643;28;20193;-89
2022/04/21 02:49:28;;;;;;;22.88;21.58;;;;;;;;;;5034615;28;20201;-90
2022/04/21 02:51:56;;;;;;;23.15;21.77;;;;;;;;;;5013227;28;20245;-89
2022/04/21 02:57:21;;;;;;;23.80;22.40;;;;;;;;;;5014297;28;20225;-88
2022/04/21 02:59:49;;;;;;;22.35;20.95;;;;;;;;;;5014190;28;20210;-89
2022/04/21 03:02:18;;;;;;;22.55;21.10;;;;;;;;;;5014037;28;20316;-90
2022/04/21 03:04:45;;;;;;;22.80;21.40;;;;;;;;;;5014458;28;20556;-90
2022/04/21 03:07:13;;;;;;;22.92;21.63;;;;;;;;;;5014264;28;20233;-89
2022/04/21 03:09:40;;;;;;;23.25;21.85;;;;;;;;;;5014160;28;20233;-90
2022/04/21 03:12:09;;;;;;;22.40;21.10;;;;;;;;;;5013993;28;20190;-87
2022/04/21 03:14:37;;;;;;;23.60;22.23;;;;;;;;;;5014477;28;20186;-90
2022/04/21 03:17:05;;;;;;;22.70;21.15;;;;;;;;;;5014368;28;20613;-89
2022/04/21 03:19:34;;;;;;;22.95;21.75;;;;;;;;;;5014461;28;20540;-89
2022/04/21 03:24:46;;;;;;;23.77;22.38;;;;;;;;;;5013934;28;20193;-90
2022/04/21 03:27:13;;;;;;;23.35;21.95;;;;;;;;;;5012630;28;20210;-89
2022/04/21 03:29:41;;;;;;;23.42;22.13;;;;;;;;;;5014031;28;20206;-90
2022/04/21 03:32:09;;;;;;;23.27;21.98;;;;;;;;;;5014180;28;20206;-90
2022/04/21 03:34:40;;;;;;;23.05;21.70;;;;;;;;;;5014074;28;20258;-89
2022/04/21 03:37:08;;;;;;;22.92;21.63;;;;;;;;;;5014390;28;20232;-90
2022/04/21 03:39:37;;;;;;;24.33;22.83;;;;;;;;;;5012688;28;20656;-89
2022/04/21 03:42:04;;;;;;;22.95;21.65;;;;;;;;;;5013916;28;20305;-89
2022/04/21 03:44:32;;;;;;;23.63;22.13;;;;;;;;;;5013784;28;20194;-90
2022/04/21 03:46:59;;;;;;;23.95;22.40;;;;;;;;;;5014045;28;20844;-89
2022/04/21 03:49:27;;;;;;;23.10;21.77;;;;;;;;;;5014313;28;20627;-89
2022/04/21 03:51:56;;;;;;;23.83;22.42;;;;;;;;;;5019474;28;20588;-89
2022/04/21 03:54:23;;;;;;;25.15;23.50;;;;;;;;;;5033602;28;20217;-90
2022/04/21 03:56:51;;;;;;;24.63;23.15;;;;;;;;;;5033625;28;20190;-89
2022/04/21 03:59:18;;;;;;;25.17;23.45;;;;;;;;;;5033411;28;20284;-89
2022/04/21 04:01:46;;;;;;;23.95;22.27;;;;;;;;;;5015685;28;20229;-89
2022/04/21 04:04:13;;;;;;;24.00;22.30;;;;;;;;;;5033239;28;20256;-89
2022/04/21 04:12:12;;;;;;;24.53;22.93;;;;;;;;;;5035169;28;20197;-89
2022/04/21 04:14:40;;;;;;;23.13;21.80;;;;;;;;;;5037369;28;20440;-89
2022/04/21 04:17:08;;;;;;;24.40;22.73;;;;;;;;;;5037277;28;20193;-89
2022/04/21 04:19:35;;;;;;;24.38;22.67;;;;;;;;;;5037174;28;20217;-89
2022/04/21 04:22:03;;;;;;;24.67;22.92;;;;;;;;;;5036838;28;20299;-88
2022/04/21 04:24:32;;;;;;;24.07;22.37;;;;;;;;;;5036810;28;20197;-89
2022/04/21 04:26:59;;;;;;;23.53;22.13;;;;;;;;;;5036778;28;20486;-90
2022/04/21 04:29:27;;;;;;;23.95;21.85;;;;;;;;;;5036915;28;20435;-91
2022/04/21 04:31:54;;;;;;;23.83;22.33;;;;;;;;;;5036843;28;20559;-91
2022/04/21 04:34:22;;;;;;;23.67;22.17;;;;;;;;;;5037544;28;20277;-91
2022/04/21 04:36:49;;;;;;;23.80;22.40;;;;;;;;;;5036833;28;20217;-91
2022/04/21 04:39:17;;;;;;;24.05;22.45;;;;;;;;;;5036421;28;20251;-91
2022/04/21 04:44:31;;;;;;;23.85;22.25;;;;;;;;;;5036816;28;20219;-91
2022/04/21 04:46:58;;;;;;;23.13;21.70;;;;;;;;;;5036321;28;20780;-91
2022/04/21 04:49:25;;;;;;;23.70;22.30;;;;;;;;;;5037010;28;20189;-91
2022/04/21 04:51:52;;;;;;;24.85;23.35;;;;;;;;;;5036856;28;20480;-91
2022/04/21 04:54:20;;;;;;;24.07;22.47;;;;;;;;;;5036635;28;20232;-91
2022/04/21 04:56:49;;;;;;;23.60;22.20;;;;;;;;;;5036724;28;20473;-91
2022/04/21 04:59:16;;;;;;;24.13;22.65;;;;;;;;;;5036682;28;20435;-89
2022/04/21 05:14:11;;;;;;;25.00;23.50;;;;;;;;;;5125029;27;20601;-89
2022/04/21 05:16:39;;;;;;;25.87;24.07;;;;;;;;;;5092042;28;20210;-88
2022/04/21 05:19:08;;;;;;;24.60;23.20;;;;;;;;;;5091443;28;20441;-88
2022/04/21 05:21:36;;;;;;;25.67;23.63;;;;;;;;;;5091766;28;20448;-87
2022/04/21 05:24:04;;;;;;;25.00;23.43;;;;;;;;;;5091245;28;20532;-88
2022/04/21 05:26:32;;;;;;;23.73;22.23;;;;;;;;;;5091669;28;20445;-88
2022/04/21 05:29:00;;;;;;;25.13;23.53;;;;;;;;;;5091401;28;20412;-87
2022/04/21 05:31:30;;;;;;;24.67;23.17;;;;;;;;;;5092181;28;20408;-89
2022/04/21 05:33:57;;;;;;;24.27;22.70;;;;;;;;;;5091224;28;20503;-88
2022/04/21 05:36:25;;;;;;;24.67;23.27;;;;;;;;;;5091568;28;20205;-88
2022/04/21 05:38:52;;;;;;;25.10;23.60;;;;;;;;;;5091790;28;20457;-88
2022/04/21 05:41:20;;;;;;;25.73;23.87;;;;;;;;;;5091526;28;20519;-88
2022/04/21 05:43:50;;;;;;;23.73;22.43;;;;;;;;;;5090927;28;20485;-88
2022/04/21 05:46:17;;;;;;;25.60;23.80;;;;;;;;;;5091265;28;20430;-88
2022/04/21 05:48:47;;;;;;;25.02;23.20;;;;;;;;;;5091793;28;20199;-88
2022/04/21 05:51:15;;;;;;;24.98;23.25;;;;;;;;;;5092086;28;20260;-87
2022/04/21 05:53:48;;;;;;;24.93;23.23;;;;;;;;;;5101505;28;20176;-87
2022/04/21 05:56:16;;;;;;;24.80;23.37;;;;;;;;;;5104078;28;20437;-87
2022/04/21 05:58:43;;;;;;;25.10;23.60;;;;;;;;;;5089829;28;20435;-87
2022/04/21 06:01:11;;;;;;;24.90;23.10;;;;;;;;;;5091146;28;20474;-87
2022/04/21 06:03:41;;;;;;;26.20;24.63;;;;;;;;;;5089178;28;21048;-88
2022/04/21 06:06:10;;;;;;;24.60;23.17;;;;;;;;;;5089804;28;20419;-88
2022/04/21 06:08:38;;;;;;;26.15;24.40;;;;;;;;;;5089481;28;21000;-88
2022/04/21 06:11:06;;;;;;;24.83;23.37;;;;;;;;;;5089869;28;20200;-89
2022/04/21 06:13:34;;;;;;;24.53;23.13;;;;;;;;;;5086735;28;20464;-92
2022/04/21 06:16:01;;;;;;;26.87;25.27;;;;;;;;;;5076968;28;20443;-91
2022/04/21 06:18:28;;;;;;;26.23;24.40;;;;;;;;;;5080187;28;20452;-91
2022/04/21 06:20:56;;;;;;;25.20;23.60;;;;;;;;;;5078013;28;20424;-88
2022/04/21 06:23:25;;;;;;;26.17;24.10;;;;;;;;;;5078079;28;20700;-92
2022/04/21 06:25:58;;;;;;;25.67;24.08;;;;;;;;;;5077324;28;20496;-90
2022/04/21 06:28:26;;;;;;;26.53;24.83;;;;;;;;;;5077092;28;20188;-90
2022/04/21 06:30:53;;;;;;;26.50;24.70;;;;;;;;;;5076916;28;20984;-89
2022/04/21 06:33:21;;;;;;;25.50;23.80;;;;;;;;;;5076793;28;20439;-90
2022/04/21 06:35:48;;;;;;;26.13;24.42;;;;;;;;;;5076579;28;20192;-85
2022/04/21 06:38:15;;;;;;;25.80;24.25;;;;;;;;;;5076502;28;20200;-86
2022/04/21 06:40:44;;;;;;;25.17;23.67;;;;;;;;;;5077006;28;20200;-96
2022/04/21 06:48:42;;;;;;;25.63;23.70;;;;;;;;;;5077499;28;20191;-96
2022/04/21 06:51:11;;;;;;;26.30;24.70;;;;;;;;;;5077579;28;20485;-92
2022/04/21 06:53:39;;;;;;;26.57;24.40;;;;;;;;;;5076631;28;20442;-93
2022/04/21 06:56:08;;;;;;;27.60;25.80;;;;;;;;;;5076364;28;20857;-94
2022/04/21 06:58:35;;;;;;;25.20;23.40;;;;;;;;;;5075730;28;20449;-92
2022/04/21 07:01:03;;;;;;;26.27;24.60;;;;;;;;;;5076768;28;20428;-93
2022/04/21 07:03:31;;;;;;;25.90;24.40;;;;;;;;;;5080856;28;20498;-96
2022/04/21 07:05:59;;;;;;;25.70;23.83;;;;;;;;;;5086501;28;20411;-95
2022/04/21 07:08:26;;;;;;;26.10;24.47;;;;;;;;;;5082591;28;20875;-95
2022/04/21 07:10:54;;;;;;;26.60;25.00;;;;;;;;;;5081569;28;20409;-96
2022/04/21 07:13:23;;;;;;;24.60;22.97;;;;;;;;;;5079798;28;21008;-86
2022/04/21 07:15:51;;;;;;;24.10;22.60;;;;;;;;;;5077123;28;20470;-91
2022/04/21 07:18:18;;;;;;;24.27;22.77;;;;;;;;;;5076383;28;20791;-86
2022/04/21 07:20:46;;;;;;;26.27;24.10;;;;;;;;;;5077052;28;20438;-89
2022/04/21 07:23:14;;;;;;;26.00;24.23;;;;;;;;;;5077377;28;20481;-88
2022/04/21 07:25:42;;;;;;;25.33;23.63;;;;;;;;;;5058977;28;20507;-94
2022/04/21 07:28:09;;;;;;;25.93;23.60;;;;;;;;;;5076233;28;20409;-95
2022/04/21 07:30:39;;;;;;;26.50;24.80;;;;;;;;;;5076008;28;20756;-91
2022/04/21 07:33:06;;;;;;;25.97;24.37;;;;;;;;;;5082916;28;20458;-96
2022/04/21 07:35:34;;;;;;;25.93;24.33;;;;;;;;;;5089891;28;20445;-96
2022/04/21 07:38:02;;;;;;;24.80;23.20;;;;;;;;;;5086340;28;20920;-96
2022/04/21 07:40:30;;;;;;;25.57;23.97;;;;;;;;;;5091281;28;20453;-96
2022/04/21 07:43:02;;;;;;;26.67;24.87;;;;;;;;;;5081810;28;20489;-95
2022/04/21 07:45:29;;;;;;;25.70;24.20;;;;;;;;;;5076009;28;20525;-95
2022/04/21 07:47:58;;;;;;;26.70;24.80;;;;;;;;;;5076816;28;20486;-88
2022/04/21 07:50:25;;;;;;;26.27;24.60;;;;;;;;;;5075968;28;20792;-94
2022/04/21 07:55:38;;;;;;;26.33;24.40;;;;;;;;;;5075175;28;20927;-93
2022/04/21 07:58:08;;;;;;;25.33;23.73;;;;;;;;;;5076006;28;20450;-93
2022/04/21 08:00:36;;;;;;;25.83;24.13;;;;;;;;;;5074277;28;20478;-93
2022/04/21 08:03:05;;;;;;;25.90;24.30;;;;;;;;;;5074946;28;20502;-93
2022/04/21 08:05:33;;;;;;;24.97;23.43;;;;;;;;;;5074933;28;20413;-93
2022/04/21 08:08:02;;;;;;;27.73;25.50;;;;;;;;;;5075001;28;20434;-93
2022/04/21 08:10:29;;;;;;;27.07;24.77;;;;;;;;;;5075125;28;20445;-92
2022/04/21 08:12:59;;;;;;;27.10;25.40;;;;;;;;;;5074969;28;20490;-92
2022/04/21 08:15:27;;;;;;;25.40;23.90;;;;;;;;;;5075363;28;20476;-95
2022/04/21 08:17:55;;;;;;;26.27;24.50;;;;;;;;;;5077179;28;20417;-94
2022/04/21 08:20:24;;;;;;;25.87;24.17;;;;;;;;;;5082358;28;20438;-90
2022/04/21 08:22:52;;;;;;;26.07;24.40;;;;;;;;;;5075590;28;20489;-94
2022/04/21 08:33:42;;;;;;;26.70;25.00;;;;;;;;;;5013412;28;20448;-94
2022/04/21 08:36:11;;;;;;;25.97;24.37;;;;;;;;;;5013550;28;20428;-90
2022/04/21 08:38:38;;;;;;;27.67;25.93;;;;;;;;;;5014118;28;20492;-93
2022/04/21 08:41:07;;;;;;;26.50;25.00;;;;;;;;;;5013209;28;20423;-95
2022/04/21 08:43:35;;;;;;;26.20;24.50;;;;;;;;;;5012999;28;20470;-95
2022/04/21 08:46:04;;;;;;;25.23;23.73;;;;;;;;;;5013286;28;20456;-91
2022/04/21 08:48:33;;;;;;;26.33;24.73;;;;;;;;;;5014010;28;20461;-94
2022/04/21 08:51:01;;;;;;;26.33;24.53;;;;;;;;;;5013228;28;20491;-91
2022/04/21 08:53:31;;;;;;;24.80;23.40;;;;;;;;;;4997256;28;20495;-96
2022/04/21 08:56:00;;;;;;;25.00;23.60;;;;;;;;;;5015549;28;20441;-96
2022/04/21 08:58:27;;;;;;;26.00;24.00;;;;;;;;;;5016655;28;20536;-96
2022/04/21 09:00:57;;;;;;;25.73;24.10;;;;;;;;;;4996699;28;20512;-88
2022/04/21 09:03:24;;;;;;;26.83;24.47;;;;;;;;;;5030273;28;20556;-86
2022/04/21 09:05:51;;;;;;;26.03;24.33;;;;;;;;;;5075642;28;20446;-87
2022/04/21 09:08:20;;;;;;;27.03;24.93;;;;;;;;;;5074655;28;20446;-86
2022/04/21 09:10:49;;;;;;;26.17;24.17;;;;;;;;;;5073250;28;20438;-86
2022/04/21 09:13:16;;;;;;;25.53;23.83;;;;;;;;;;5073528;28;20453;-83
2022/04/21 09:15:45;;;;;;;25.77;24.20;;;;;;;;;;5074257;28;20441;-84
2022/04/21 09:18:13;;;;;;;26.10;24.50;;;;;;;;;;5073945;28;20461;-84
2022/04/21 09:20:40;;;;;;;28.30;26.30;;;;;;;;;;5073029;28;20462;-86
2022/04/21 09:23:10;;;;;;;26.43;24.77;;;;;;;;;;5074073;28;20448;-86
2022/04/21 09:25:43;;;;;;;25.90;24.30;;;;;;;;;;5073748;28;20414;-87
2022/04/21 09:28:22;;;;;;;25.40;23.77;;;;;;;;;;5073609;28;20438;-84
2022/04/21 09:30:51;;;;;;;27.27;25.43;;;;;;;;;;5073904;28;20446;-85
2022/04/21 09:33:27;;;;;;;26.10;24.50;;;;;;;;;;5072037;28;20912;-85
2022/04/21 09:35:55;;;;;;;25.60;23.90;;;;;;;;;;5073990;28;20434;-84
2022/04/21 09:38:23;;;;;;;24.50;23.10;;;;;;;;;;5074605;28;20755;-84
2022/04/21 09:40:50;;;;;;;26.63;24.77;;;;;;;;;;5072493;28;20417;-83
2022/04/21 09:43:28;;;;;;;25.30;23.70;;;;;;;;;;5074085;28;20479;-88
2022/04/21 09:46:10;;;;;;;26.90;25.30;;;;;;;;;;5074234;28;20462;-93
2022/04/21 09:48:38;;;;;;;26.80;25.20;;;;;;;;;;5074584;28;20435;-86
2022/04/21 09:51:10;;;;;;;26.20;24.40;;;;;;;;;;5077442;28;20430;-85
2022/04/21 09:53:49;;;;;;;26.97;25.27;;;;;;;;;;5078073;28;20416;-95
2022/04/21 09:56:17;;;;;;;26.23;24.63;;;;;;;;;;5077926;28;20519;-95
2022/04/21 09:58:47;;;;;;;25.30;23.60;;;;;;;;;;5077804;28;21086;-93
2022/04/21 10:01:14;;;;;;;28.37;26.13;;;;;;;;;;5077665;28;20939;-89
2022/04/21 10:03:43;;;;;;;25.40;23.80;;;;;;;;;;5077013;28;20777;-84
2022/04/21 10:06:11;;;;;;;26.40;24.60;;;;;;;;;;5075743;28;20454;-84
2022/04/21 10:08:42;;;;;;;26.10;24.40;;;;;;;;;;5076891;28;20462;-88
2022/04/21 10:11:10;;;;;;;26.70;25.00;;;;;;;;;;5077272;28;20790;-89
2022/04/21 10:13:37;;;;;;;27.50;25.60;;;;;;;;;;5076701;28;20460;-89
2022/04/21 10:16:08;;;;;;;24.97;23.47;;;;;;;;;;5059426;28;20450;-83
2022/04/21 10:18:36;;;;;;;24.90;23.27;;;;;;;;;;5077031;28;20815;-85
2022/04/21 10:21:05;;;;;;;25.47;23.77;;;;;;;;;;5076861;28;20505;-83
2022/04/21 10:23:34;;;;;;;26.50;24.80;;;;;;;;;;5076619;28;20489;-84
2022/04/21 10:26:01;;;;;;;26.33;24.50;;;;;;;;;;5076201;28;20425;-84
2022/04/21 10:28:38;;;;;;;26.10;24.53;;;;;;;;;;5076970;28;20800;-84
2022/04/21 10:31:24;;;;;;;27.07;25.30;;;;;;;;;;5076510;28;20442;-84
2022/04/21 10:33:56;;;;;;;26.10;24.40;;;;;;;;;;5076246;28;20847;-84
2022/04/21 10:36:37;;;;;;;26.50;24.60;;;;;;;;;;5076087;28;20815;-84
2022/04/21 10:39:23;;;;;;;25.90;24.30;;;;;;;;;;5076407;28;20541;-85
2022/04/21 10:42:06;;;;;;;27.17;25.47;;;;;;;;;;5076114;28;20469;-84
2022/04/21 10:44:42;;;;;;;28.97;26.67;;;;;;;;;;5076051;28;20478;-85
2022/04/21 10:47:28;;;;;;;27.40;25.60;;;;;;;;;;5076499;28;20457;-85
2022/04/21 10:49:57;;;;;;;26.80;25.10;;;;;;;;;;5075441;28;20529;-84
2022/04/21 10:58:23;;;;;;;27.37;25.50;;;;;;;;;;5076518;28;20426;-85
2022/04/21 11:01:08;;;;;;;25.50;23.80;;;;;;;;;;5076510;28;20405;-84
2022/04/21 11:03:36;;;;;;;26.80;25.07;;;;;;;;;;5076950;28;20452;-88
2022/04/21 11:06:08;;;;;;;26.07;24.30;;;;;;;;;;5076833;28;20842;-84
2022/04/21 11:08:35;;;;;;;26.10;24.30;;;;;;;;;;5075693;28;20409;-85
2022/04/21 11:11:03;;;;;;;27.17;25.37;;;;;;;;;;5076108;28;20426;-85
2022/04/21 11:13:44;;;;;;;26.60;24.90;;;;;;;;;;5075110;28;20820;-85
2022/04/21 11:16:11;;;;;;;26.27;24.30;;;;;;;;;;5075719;28;20434;-85
2022/04/21 11:18:39;;;;;;;26.63;24.93;;;;;;;;;;5075423;28;20484;-85
2022/04/21 11:21:26;;;;;;;25.70;24.10;;;;;;;;;;5075365;28;20914;-85
2022/04/21 11:24:03;;;;;;;26.90;25.07;;;;;;;;;;5075437;28;20527;-85
2022/04/21 11:26:30;;;;;;;26.67;25.07;;;;;;;;;;5075288;28;20466;-85
2022/04/21 11:29:03;;;;;;;26.80;25.00;;;;;;;;;;5075404;28;20514;-85
2022/04/21 11:31:31;;;;;;;27.30;25.40;;;;;;;;;;5075589;28;20474;-85
2022/04/21 11:34:02;;;;;;;27.40;25.23;;;;;;;;;;5075327;28;20432;-85
2022/04/21 11:36:37;;;;;;;26.70;25.00;;;;;;;;;;5074907;28;20466;-85
2022/04/21 11:39:08;;;;;;;26.23;24.53;;;;;;;;;;5075164;28;20434;-85
2022/04/21 11:41:35;;;;;;;25.87;24.17;;;;;;;;;;5075164;28;20928;-84
2022/04/21 11:44:03;;;;;;;27.40;25.50;;;;;;;;;;5075163;28;20456;-85
2022/04/21 11:46:30;;;;;;;27.17;25.30;;;;;;;;;;5075160;28;20454;-85
2022/04/21 11:49:00;;;;;;;27.23;25.43;;;;;;;;;;5074785;28;20793;-84
2022/04/21 11:51:28;;;;;;;27.00;24.93;;;;;;;;;;5075045;28;20414;-85
2022/04/21 11:53:57;;;;;;;27.67;25.97;;;;;;;;;;5075022;28;20468;-85
2022/04/21 11:56:27;;;;;;;27.97;25.77;;;;;;;;;;5074842;28;20808;-84
2022/04/21 11:58:54;;;;;;;29.60;27.30;;;;;;;;;;5074558;28;20473;-85
2022/04/21 12:06:55;;;;;;;27.97;26.17;;;;;;;;;;5074809;28;20917;-84
2022/04/21 12:09:24;;;;;;;27.93;26.10;;;;;;;;;;5074440;28;20439;-84
2022/04/21 12:11:53;;;;;;;27.63;25.90;;;;;;;;;;5073713;28;20445;-85
2022/04/21 12:14:20;;;;;;;28.10;26.20;;;;;;;;;;5074149;28;20450;-84
2022/04/21 12:16:50;;;;;;;27.83;26.03;;;;;;;;;;5074530;28;20425;-84
2022/04/21 12:19:21;;;;;;;30.13;27.80;;;;;;;;;;5074166;28;20469;-84
2022/04/21 12:21:56;;;;;;;27.90;26.20;;;;;;;;;;5074475;28;20438;-84
2022/04/21 12:24:29;;;;;;;25.90;24.30;;;;;;;;;;5074919;28;20484;-89
2022/04/21 12:26:56;;;;;;;27.27;25.57;;;;;;;;;;5075569;28;20465;-87
2022/04/21 12:29:24;;;;;;;28.13;26.43;;;;;;;;;;5076951;28;20413;-95
2022/04/21 12:31:52;;;;;;;27.10;25.50;;;;;;;;;;5075895;28;20433;-91
2022/04/21 12:34:24;;;;;;;28.90;26.27;;;;;;;;;;5067998;28;20441;-88
2022/04/21 12:36:52;;;;;;;27.87;26.07;;;;;;;;;;5061750;28;21476;-89
2022/04/21 12:39:20;;;;;;;26.77;24.87;;;;;;;;;;5074518;28;20498;-91
2022/04/21 12:41:51;;;;;;;28.33;26.43;;;;;;;;;;5074712;28;20820;-90
2022/04/21 12:44:22;;;;;;;28.47;26.67;;;;;;;;;;5074475;28;20870;-88
2022/04/21 12:47:00;;;;;;;26.37;24.67;;;;;;;;;;5074246;28;20472;-89
2022/04/21 12:49:42;;;;;;;26.50;24.70;;;;;;;;;;5074443;28;20441;-90
2022/04/21 12:52:09;;;;;;;27.30;25.60;;;;;;;;;;5073932;28;20416;-89
2022/04/21 12:54:37;;;;;;;27.57;25.80;;;;;;;;;;5074500;28;20416;-88
2022/04/21 12:57:08;;;;;;;27.80;26.00;;;;;;;;;;5074673;28;20413;-88
2022/04/21 12:59:36;;;;;;;25.90;24.03;;;;;;;;;;5074439;28;20652;-89
2022/04/21 13:02:03;;;;;;;26.40;24.53;;;;;;;;;;5074243;28;20890;-88
2022/04/21 13:04:30;;;;;;;25.77;24.20;;;;;;;;;;5074230;28;20768;-86
2022/04/21 13:06:58;;;;;;;26.30;24.50;;;;;;;;;;5074366;28;20908;-90
2022/04/21 13:09:25;;;;;;;26.47;24.60;;;;;;;;;;5074584;28;20405;-92
2022/04/21 13:11:53;;;;;;;25.43;23.93;;;;;;;;;;5072790;28;20426;-87
2022/04/21 13:14:22;;;;;;;25.87;24.27;;;;;;;;;;5073885;28;20426;-89
2022/04/21 13:16:49;;;;;;;25.37;23.67;;;;;;;;;;5073984;28;20438;-89
2022/04/21 13:19:16;;;;;;;25.90;24.30;;;;;;;;;;5074065;28;20413;-87
2022/04/21 13:21:56;;;;;;;26.23;24.60;;;;;;;;;;5073793;28;20438;-85
2022/04/21 13:24:24;;;;;;;24.73;23.20;;;;;;;;;;5075863;28;20923;-87
2022/04/21 13:26:52;;;;;;;25.13;23.63;;;;;;;;;;5077202;28;20443;-86
2022/04/21 13:29:20;;;;;;;25.70;24.00;;;;;;;;;;5078244;28;20939;-87
2022/04/21 13:34:33;;;;;;;27.17;25.17;;;;;;;;;;5078128;28;20798;-87
2022/04/21 13:37:01;;;;;;;25.20;23.60;;;;;;;;;;5078408;28;20413;-87
2022/04/21 13:39:28;;;;;;;26.73;24.83;;;;;;;;;;5078257;28;20416;-87
2022/04/21 13:41:56;;;;;;;24.73;23.33;;;;;;;;;;5079030;28;20434;-90
2022/04/21 13:44:23;;;;;;;26.03;24.43;;;;;;;;;;5060256;28;20453;-94
2022/04/21 13:46:52;;;;;;;24.50;23.10;;;;;;;;;;5078316;28;20425;-92
2022/04/21 13:49:20;;;;;;;24.37;22.97;;;;;;;;;;5078045;28;20458;-96
2022/04/21 13:51:48;;;;;;;25.33;23.83;;;;;;;;;;5077639;28;20466;-92
2022/04/21 13:54:17;;;;;;;24.53;22.93;;;;;;;;;;5077196;28;20416;-92
2022/04/21 13:56:44;;;;;;;24.80;23.30;;;;;;;;;;5077291;28;21013;-84
2022/04/21 13:59:12;;;;;;;25.10;23.37;;;;;;;;;;5077605;28;20484;-92
2022/04/21 14:01:41;;;;;;;24.77;23.30;;;;;;;;;;5077539;28;20405;-92
2022/04/21 14:04:11;;;;;;;24.67;23.27;;;;;;;;;;5076040;28;20514;-92
2022/04/21 14:06:38;;;;;;;26.53;24.50;;;;;;;;;;5077323;28;20409;-92
2022/04/21 14:09:05;;;;;;;25.73;24.10;;;;;;;;;;5077269;28;20433;-92
2022/04/21 14:11:33;;;;;;;25.47;23.87;;;;;;;;;;5076260;28;20438;-92
2022/04/21 14:14:00;;;;;;;26.40;24.80;;;;;;;;;;5076876;28;20514;-92
2022/04/21 14:16:27;;;;;;;25.37;23.60;;;;;;;;;;5077136;28;20493;-92
2022/04/21 14:18:55;;;;;;;24.80;23.30;;;;;;;;;;5075857;28;20429;-93
2022/04/21 14:21:24;;;;;;;26.93;25.20;;;;;;;;;;5077117;28;20511;-92
2022/04/21 14:23:51;;;;;;;24.97;23.43;;;;;;;;;;5077216;28;20475;-91
2022/04/21 14:26:18;;;;;;;24.60;23.00;;;;;;;;;;5077009;28;20464;-92
2022/04/21 14:28:47;;;;;;;25.93;24.33;;;;;;;;;;5077157;28;20766;-92
2022/04/21 14:31:14;;;;;;;25.90;24.30;;;;;;;;;;5077184;28;20436;-92
2022/04/21 14:33:41;;;;;;;26.27;24.67;;;;;;;;;;5076803;28;20436;-92
2022/04/21 14:36:09;;;;;;;25.07;23.57;;;;;;;;;;5076396;28;20496;-92
2022/04/21 14:44:10;;;;;;;26.23;24.63;;;;;;;;;;5076489;28;20440;-92
2022/04/21 14:46:39;;;;;;;26.07;24.10;;;;;;;;;;5076780;28;20450;-93
2022/04/21 14:49:07;;;;;;;25.90;24.30;;;;;;;;;;5076488;28;20994;-92
2022/04/21 14:51:35;;;;;;;26.07;24.30;;;;;;;;;;5076410;28;20504;-91
2022/04/21 14:54:04;;;;;;;25.80;24.10;;;;;;;;;;5076322;28;20435;-92
2022/04/21 14:56:31;;;;;;;25.03;23.60;;;;;;;;;;5076493;28;20534;-92
2022/04/21 14:58:59;;;;;;;25.03;23.53;;;;;;;;;;5076912;28;20452;-92
2022/04/21 15:01:26;;;;;;;26.60;24.90;;;;;;;;;;5076379;28;20421;-92
2022/04/21 15:03:54;;;;;;;25.57;23.90;;;;;;;;;;5076423;28;20413;-92
2022/04/21 15:06:21;;;;;;;25.40;23.60;;;;;;;;;;5075362;28;20876;-92
2022/04/21 15:08:49;;;;;;;25.57;24.00;;;;;;;;;;5076767;28;20425;-93
2022/04/21 15:11:18;;;;;;;24.80;23.20;;;;;;;;;;5075993;28;20420;-92
2022/04/21 15:13:45;;;;;;;24.03;22.53;;;;;;;;;;5075866;28;20467;-92
2022/04/21 15:16:13;;;;;;;25.63;23.73;;;;;;;;;;5076138;28;20469;-92
2022/04/21 15:18:40;;;;;;;24.43;23.00;;;;;;;;;;5076044;28;20850;-92
2022/04/21 15:21:07;;;;;;;24.20;22.70;;;;;;;;;;5075967;28;20428;-92
2022/04/21 15:23:35;;;;;;;24.27;22.77;;;;;;;;;;5075731;28;20455;-92
2022/04/21 15:26:02;;;;;;;24.90;23.30;;;;;;;;;;5076238;28;20484;-93
2022/04/21 15:28:31;;;;;;;24.03;22.60;;;;;;;;;;5075970;28;20458;-93
2022/04/21 15:30:59;;;;;;;24.20;22.80;;;;;;;;;;5075576;28;20443;-92
2022/04/21 15:33:26;;;;;;;24.80;23.40;;;;;;;;;;5076006;28;20445;-91
2022/04/21 15:35:54;;;;;;;24.37;23.00;;;;;;;;;;5076108;28;20450;-92
2022/04/21 15:38:21;;;;;;;24.20;22.70;;;;;;;;;;5075856;28;20542;-91